Time;durP1;ratioP1;P1;durP2;ratioP2;P2;SDS_P1;SDS_P2;PMS_P1;PMS_P2;Temp;Humidity;BMP_temperature;BMP_pressure;BME280_temperature;BME280_humidity;BME280_pressure;Samples;Min_cycle;Max_cycle;Signal;HPM_P1;HPM_P2
2022/09/17 00:00:43;;;;;;;6.97;3.28;;;9.70;99.90;;;;;;5035496;28;20647;-70
2022/09/17 00:03:10;;;;;;;4.60;2.95;;;9.70;99.90;;;;;;5040291;28;20507;-70
2022/09/17 00:05:37;;;;;;;5.07;2.97;;;9.70;99.90;;;;;;5034390;28;20037;-70
2022/09/17 00:08:06;;;;;;;10.00;3.47;;;9.70;99.90;;;;;;5016458;28;20053;-70
2022/09/17 00:10:38;;;;;;;7.20;2.42;;;9.70;99.90;;;;;;5034654;28;20477;-69
2022/09/17 00:13:05;;;;;;;5.07;2.75;;;9.70;99.90;;;;;;5015101;28;20549;-70
2022/09/17 00:15:38;;;;;;;6.32;2.72;;;9.80;99.90;;;;;;5035617;28;20286;-70
2022/09/17 00:18:04;;;;;;;6.50;3.42;;;9.80;99.90;;;;;;5030108;28;20053;-70
2022/09/17 00:20:31;;;;;;;11.27;4.50;;;9.80;99.90;;;;;;5026364;28;20048;-70
2022/09/17 00:22:58;;;;;;;16.95;6.97;;;9.90;99.90;;;;;;5033654;28;20056;-70
2022/09/17 00:25:25;;;;;;;20.05;6.97;;;9.90;99.90;;;;;;5038284;28;20137;-70
2022/09/17 00:27:51;;;;;;;17.42;7.10;;;9.90;99.90;;;;;;5038115;28;20053;-70
2022/09/17 00:30:18;;;;;;;21.20;7.28;;;9.90;99.90;;;;;;5037099;28;20063;-71
2022/09/17 00:32:45;;;;;;;22.60;9.05;;;9.90;99.90;;;;;;5036864;28;20048;-70
2022/09/17 00:35:11;;;;;;;19.45;8.65;;;9.90;99.90;;;;;;5019001;28;20060;-71
2022/09/17 00:37:38;;;;;;;20.05;8.43;;;9.90;99.90;;;;;;5034611;28;20045;-70
2022/09/17 00:40:05;;;;;;;22.05;7.80;;;9.90;99.90;;;;;;5013202;28;20045;-70
2022/09/17 00:42:32;;;;;;;18.60;7.82;;;9.90;99.90;;;;;;5036352;28;20049;-70
2022/09/17 00:44:59;;;;;;;13.40;6.97;;;9.90;99.90;;;;;;5019848;28;20596;-70
2022/09/17 00:47:33;;;;;;;14.23;5.22;;;9.90;99.90;;;;;;5020156;28;20426;-70
2022/09/17 00:50:01;;;;;;;8.50;3.70;;;9.90;99.90;;;;;;5017150;28;20055;-70
2022/09/17 00:52:33;;;;;;;15.88;5.70;;;9.90;99.90;;;;;;5019477;28;20606;-71
2022/09/17 00:55:08;;;;;;;13.68;6.18;;;9.90;99.90;;;;;;5020010;28;20072;-70
2022/09/17 00:57:34;;;;;;;;;;;9.90;99.90;;;;;;5017374;28;20495;-71
2022/09/17 01:00:03;;;;;;;29.00;8.60;;;9.90;99.90;;;;;;5013524;28;19921;-70
2022/09/17 01:02:30;;;;;;;23.92;7.57;;;9.90;99.90;;;;;;5036094;28;20302;-70
2022/09/17 01:04:57;;;;;;;22.75;8.27;;;9.90;99.90;;;;;;5033034;28;20094;-71
2022/09/17 01:07:38;;;;;;;22.02;7.95;;;9.90;99.90;;;;;;5037825;28;20292;-70
2022/09/17 01:10:15;;;;;;;20.67;7.72;;;9.90;99.90;;;;;;5019045;28;20053;-70
2022/09/17 01:12:57;;;;;;;22.25;9.68;;;9.90;99.90;;;;;;5016669;28;20132;-70
2022/09/17 01:15:32;;;;;;;23.92;8.82;;;10.00;99.90;;;;;;5017140;28;20352;-70
2022/09/17 01:18:21;;;;;;;17.55;7.10;;;10.00;99.90;;;;;;5020649;28;20041;-69
2022/09/17 01:21:01;;;;;;;18.10;6.90;;;10.00;99.90;;;;;;5016700;28;20623;-70
2022/09/17 01:23:46;;;;;;;21.13;7.22;;;10.00;99.90;;;;;;5038748;28;20045;-70
2022/09/17 01:26:41;;;;;;;18.33;6.65;;;9.90;99.90;;;;;;5035389;28;20037;-70
2022/09/17 01:29:22;;;;;;;22.53;8.17;;;9.90;99.90;;;;;;5033180;28;20045;-69
2022/09/17 01:32:14;;;;;;;21.70;8.52;;;9.90;99.90;;;;;;5015407;28;20044;-69
2022/09/17 01:35:02;;;;;;;26.77;9.68;;;9.90;99.90;;;;;;5030432;28;20659;-69
2022/09/17 01:37:42;;;;;;;31.65;10.00;;;9.90;99.90;;;;;;5018040;28;20205;-70
2022/09/17 01:40:23;;;;;;;32.10;12.23;;;9.90;99.90;;;;;;5033662;22;20557;-69
2022/09/17 01:43:01;;;;;;;35.28;10.60;;;9.90;99.90;;;;;;5034965;28;20045;-71
2022/09/17 01:45:51;;;;;;;35.75;11.75;;;9.90;99.90;;;;;;5018729;28;20048;-69
2022/09/17 01:48:22;;;;;;;34.00;9.10;;;10.00;99.90;;;;;;5017117;28;20045;-71
2022/09/17 01:51:03;;;;;;;24.50;9.88;;;9.90;99.90;;;;;;5023643;28;20662;-71
2022/09/17 01:53:47;;;;;;;29.55;9.70;;;9.90;99.90;;;;;;5021890;28;20582;-70
2022/09/17 01:56:18;;;;;;;25.00;9.00;;;9.90;99.90;;;;;;5035041;28;20037;-70
2022/09/17 01:58:52;;;;;;;25.52;7.93;;;9.90;99.90;;;;;;5035049;28;20136;-71
2022/09/17 02:01:22;;;;;;;27.95;9.05;;;9.80;99.90;;;;;;5028040;28;20033;-71
2022/09/17 02:03:56;;;;;;;21.83;8.75;;;9.80;99.90;;;;;;5032165;28;20139;-71
2022/09/17 02:06:31;;;;;;;28.13;9.50;;;9.90;99.90;;;;;;5036244;28;20048;-72
2022/09/17 02:09:05;;;;;;;30.80;8.38;;;9.90;99.90;;;;;;5013836;28;20048;-71
2022/09/17 02:11:35;;;;;;;33.17;10.60;;;9.80;99.90;;;;;;5033074;28;20141;-70
2022/09/17 02:14:09;;;;;;;23.85;9.55;;;9.90;99.90;;;;;;5014935;28;20080;-71
2022/09/17 02:16:39;;;;;;;28.65;9.80;;;9.90;99.90;;;;;;5016870;28;20060;-71
2022/09/17 02:19:19;;;;;;;28.80;9.55;;;9.90;99.90;;;;;;5016199;28;20045;-70
2022/09/17 02:22:16;;;;;;;36.67;9.55;;;9.90;99.90;;;;;;5032097;28;20056;-70
2022/09/17 02:24:48;;;;;;;39.88;10.50;;;9.90;99.90;;;;;;5033482;28;20037;-71
2022/09/17 02:27:24;;;;;;;40.13;11.45;;;9.90;99.90;;;;;;5011294;28;20044;-70
2022/09/17 02:29:51;;;;;;;40.47;11.95;;;9.90;99.90;;;;;;5034583;28;20078;-73
2022/09/17 02:32:19;;;;;;;37.28;11.75;;;9.90;99.90;;;;;;5014405;28;20604;-69
2022/09/17 02:34:46;;;;;;;38.53;10.35;;;9.80;99.90;;;;;;5012291;28;20045;-69
2022/09/17 02:37:13;;;;;;;36.83;11.35;;;9.80;99.90;;;;;;5014345;28;20059;-69
2022/09/17 02:39:40;;;;;;;38.30;11.20;;;9.80;99.90;;;;;;5034145;28;20041;-69
2022/09/17 02:42:21;;;;;;;36.42;10.73;;;9.70;99.90;;;;;;5013254;28;20414;-70
2022/09/17 02:45:14;;;;;;;41.55;13.05;;;9.70;99.90;;;;;;5031141;28;20041;-70
2022/09/17 02:47:57;;;;;;;36.90;11.05;;;9.70;99.90;;;;;;5018068;28;20440;-72
2022/09/17 02:51:21;;;;;;;40.53;10.85;;;9.70;99.90;;;;;;5031834;28;20055;-74
2022/09/17 02:54:15;;;;;;;35.67;10.40;;;9.70;99.90;;;;;;4959492;28;20262;-74
2022/09/17 02:56:47;;;;;;;38.08;9.73;;;9.60;99.90;;;;;;4973301;28;20043;-72
2022/09/17 02:59:43;;;;;;;32.90;8.82;;;9.60;99.90;;;;;;5018672;28;20716;-72
2022/09/17 03:02:19;;;;;;;38.83;8.45;;;9.60;99.90;;;;;;5028635;28;20052;-72
2022/09/17 03:04:48;;;;;;;25.75;7.63;;;9.60;99.90;;;;;;5009973;28;20123;-73
2022/09/17 03:07:17;;;;;;;27.85;9.52;;;9.60;99.90;;;;;;5034162;28;20052;-74
2022/09/17 03:09:44;;;;;;;35.80;9.93;;;9.50;99.90;;;;;;5013929;28;20055;-73
2022/09/17 03:12:12;;;;;;;29.83;11.07;;;9.60;99.90;;;;;;5015242;28;20219;-72
2022/09/17 03:14:38;;;;;;;31.73;9.75;;;9.50;99.90;;;;;;5015717;28;20037;-72
2022/09/17 03:17:05;;;;;;;34.88;8.85;;;9.50;99.90;;;;;;5017277;28;20073;-71
2022/09/17 03:19:32;;;;;;;30.20;9.57;;;9.50;99.90;;;;;;5017479;28;20041;-72
2022/09/17 03:21:58;;;;;;;34.63;9.23;;;9.50;99.90;;;;;;5016566;28;20041;-71
2022/09/17 03:24:26;;;;;;;37.92;8.43;;;9.50;99.90;;;;;;5034271;28;20047;-72
2022/09/17 03:26:52;;;;;;;26.77;6.55;;;9.50;99.90;;;;;;5010875;28;20045;-72
2022/09/17 03:29:19;;;;;;;22.13;8.05;;;9.50;99.90;;;;;;5034552;28;20491;-72
2022/09/17 03:31:46;;;;;;;24.65;8.20;;;9.40;99.90;;;;;;5029534;28;20132;-72
2022/09/17 03:34:13;;;;;;;28.08;8.73;;;9.40;99.90;;;;;;5029881;28;20044;-72
2022/09/17 03:36:40;;;;;;;36.25;8.40;;;9.40;99.90;;;;;;5032952;28;20049;-74
2022/09/17 03:39:06;;;;;;;43.78;10.70;;;9.40;99.90;;;;;;5033164;28;20391;-72
2022/09/17 03:41:33;;;;;;;26.23;9.35;;;9.40;99.90;;;;;;5015860;28;20068;-71
2022/09/17 03:44:00;;;;;;;23.70;7.32;;;9.30;99.90;;;;;;5037874;28;20052;-71
2022/09/17 03:46:26;;;;;;;28.75;8.02;;;9.40;99.90;;;;;;5043541;28;20045;-71
2022/09/17 03:48:53;;;;;;;26.45;8.75;;;9.30;99.90;;;;;;5057411;28;20044;-74
2022/09/17 03:51:20;;;;;;;31.48;7.50;;;9.40;99.90;;;;;;5048430;28;20041;-72
2022/09/17 03:53:47;;;;;;;29.90;7.63;;;9.30;99.90;;;;;;5056005;28;20029;-71
2022/09/17 03:56:14;;;;;;;44.25;9.15;;;9.30;99.90;;;;;;5044668;28;20057;-70
2022/09/17 03:58:40;;;;;;;35.63;9.80;;;9.30;99.90;;;;;;5031921;28;20055;-72
2022/09/17 04:01:07;;;;;;;29.63;8.75;;;9.30;99.90;;;;;;5014928;28;20037;-73
2022/09/17 04:03:34;;;;;;;33.85;9.27;;;9.30;99.90;;;;;;5016997;28;20037;-73
2022/09/17 04:06:00;;;;;;;36.15;10.07;;;9.30;99.90;;;;;;5043040;28;20468;-72
2022/09/17 04:08:27;;;;;;;36.78;9.55;;;9.30;99.90;;;;;;5049551;28;20052;-72
2022/09/17 04:10:54;;;;;;;34.83;10.23;;;9.30;99.90;;;;;;5039662;28;20048;-72
2022/09/17 04:13:20;;;;;;;34.33;10.82;;;9.30;99.90;;;;;;5040322;28;20384;-71
2022/09/17 04:15:47;;;;;;;36.17;11.27;;;9.30;99.90;;;;;;5018837;28;20041;-71
2022/09/17 04:18:14;;;;;;;32.20;10.48;;;9.20;99.90;;;;;;5020458;28;20072;-73
2022/09/17 04:20:42;;;;;;;35.03;11.20;;;9.20;99.90;;;;;;5011607;28;20045;-73
2022/09/17 04:23:10;;;;;;;37.25;11.68;;;9.20;99.90;;;;;;5037246;28;20048;-76
2022/09/17 04:25:38;;;;;;;39.67;10.43;;;9.20;99.90;;;;;;5020812;28;20048;-73
2022/09/17 04:28:04;;;;;;;28.00;10.27;;;9.10;99.90;;;;;;5016260;28;20049;-75
2022/09/17 04:30:31;;;;;;;33.00;13.52;;;9.20;99.90;;;;;;5038497;28;20037;-73
2022/09/17 04:32:58;;;;;;;43.80;11.43;;;9.10;99.90;;;;;;5016504;28;20076;-74
2022/09/17 04:35:25;;;;;;;37.67;12.57;;;9.10;99.90;;;;;;5035367;28;20049;-74
2022/09/17 04:37:56;;;;;;;31.83;11.88;;;9.10;99.90;;;;;;5037977;28;20052;-74
2022/09/17 04:40:24;;;;;;;39.15;11.55;;;9.10;99.90;;;;;;5036170;28;20033;-74
2022/09/17 04:42:55;;;;;;;29.50;11.45;;;9.10;99.90;;;;;;5038458;28;20048;-74
2022/09/17 04:45:22;;;;;;;42.88;12.13;;;9.10;99.90;;;;;;5038117;28;20041;-75
2022/09/17 04:47:52;;;;;;;40.08;11.90;;;9.10;99.90;;;;;;5035677;28;21901;-73
2022/09/17 04:50:19;;;;;;;28.98;12.13;;;9.10;99.90;;;;;;5014589;28;20052;-73
2022/09/17 04:52:47;;;;;;;38.15;11.20;;;9.10;99.90;;;;;;5036003;28;20036;-73
2022/09/17 04:55:14;;;;;;;34.50;10.80;;;9.10;99.90;;;;;;5038997;28;20381;-74
2022/09/17 04:57:48;;;;;;;26.13;10.93;;;9.00;99.90;;;;;;5036482;28;20040;-73
2022/09/17 05:00:16;;;;;;;29.70;11.43;;;9.00;99.90;;;;;;5037557;28;20056;-73
2022/09/17 05:02:45;;;;;;;34.22;11.75;;;9.00;99.90;;;;;;5009464;28;20049;-74
2022/09/17 05:05:12;;;;;;;35.53;11.73;;;9.00;99.90;;;;;;5035172;28;20404;-74
2022/09/17 05:07:39;;;;;;;33.08;11.88;;;9.00;99.90;;;;;;5035788;28;20055;-74
2022/09/17 05:10:07;;;;;;;46.80;13.77;;;9.00;99.90;;;;;;5014422;28;20052;-74
2022/09/17 05:12:35;;;;;;;41.20;11.85;;;9.00;99.90;;;;;;5031795;28;20049;-74
2022/09/17 05:15:02;;;;;;;39.08;12.52;;;9.00;99.90;;;;;;5016382;28;20529;-74
2022/09/17 05:17:29;;;;;;;33.50;10.05;;;9.00;99.90;;;;;;5018638;28;20495;-74
2022/09/17 05:19:55;;;;;;;32.42;12.05;;;8.90;99.90;;;;;;5020242;28;20490;-74
2022/09/17 05:22:22;;;;;;;40.97;11.10;;;8.90;99.90;;;;;;5035766;28;20538;-74
2022/09/17 05:24:49;;;;;;;39.50;11.13;;;8.90;99.90;;;;;;4999398;28;21424;-74
2022/09/17 05:27:16;;;;;;;36.15;10.90;;;9.00;99.90;;;;;;5035808;28;20434;-72
2022/09/17 05:29:44;;;;;;;26.13;8.65;;;9.00;99.90;;;;;;5018338;28;20047;-73
2022/09/17 05:32:10;;;;;;;38.92;9.68;;;9.00;99.90;;;;;;5030262;28;20057;-72
2022/09/17 05:34:37;;;;;;;29.42;9.50;;;8.90;99.90;;;;;;5031931;28;20682;-74
2022/09/17 05:37:03;;;;;;;25.08;9.68;;;9.00;99.90;;;;;;5035223;28;20052;-74
2022/09/17 05:39:31;;;;;;;32.22;10.27;;;8.90;99.90;;;;;;5034669;28;20136;-73
2022/09/17 05:41:58;;;;;;;35.17;11.43;;;8.90;99.90;;;;;;5015023;28;20513;-73
2022/09/17 05:44:25;;;;;;;31.40;11.10;;;9.00;99.90;;;;;;5019840;28;20044;-72
2022/09/17 05:46:52;;;;;;;31.33;9.38;;;9.00;99.90;;;;;;5033628;28;20090;-74
2022/09/17 05:49:19;;;;;;;37.88;10.90;;;8.90;99.90;;;;;;5033582;28;20045;-73
2022/09/17 05:51:45;;;;;;;29.73;10.43;;;8.90;99.90;;;;;;5035142;28;20040;-74
2022/09/17 05:54:12;;;;;;;39.58;10.50;;;8.90;99.90;;;;;;5037815;28;20041;-74
2022/09/17 05:56:39;;;;;;;25.60;9.52;;;8.90;99.90;;;;;;5036826;28;20033;-73
2022/09/17 05:59:05;;;;;;;28.70;11.32;;;9.00;99.90;;;;;;5035161;28;20063;-73
2022/09/17 06:01:32;;;;;;;24.08;9.35;;;9.00;99.90;;;;;;5015725;28;20044;-73
2022/09/17 06:04:01;;;;;;;34.72;9.68;;;9.00;99.90;;;;;;5019215;28;20526;-74
2022/09/17 06:06:29;;;;;;;30.02;9.60;;;9.00;99.90;;;;;;5037056;28;20047;-74
2022/09/17 06:08:59;;;;;;;29.50;10.63;;;9.00;99.90;;;;;;5035569;28;20044;-73
2022/09/17 06:11:27;;;;;;;27.52;9.43;;;9.00;99.90;;;;;;5037355;28;20041;-73
2022/09/17 06:13:55;;;;;;;37.70;9.82;;;9.00;99.90;;;;;;5031945;28;20228;-73
2022/09/17 06:16:23;;;;;;;29.45;10.20;;;8.90;99.90;;;;;;5037565;28;20045;-73
2022/09/17 06:18:51;;;;;;;32.83;10.63;;;9.00;99.90;;;;;;5033671;28;20063;-73
2022/09/17 06:21:20;;;;;;;25.38;9.68;;;8.90;99.90;;;;;;5019505;28;20041;-74
2022/09/17 06:23:50;;;;;;;38.25;9.55;;;9.00;99.90;;;;;;5035856;28;20045;-73
2022/09/17 06:26:17;;;;;;;29.38;9.90;;;9.00;99.90;;;;;;5033144;28;20140;-72
2022/09/17 06:28:44;;;;;;;26.40;9.90;;;9.10;99.90;;;;;;5031514;28;20658;-73
2022/09/17 06:31:12;;;;;;;30.30;9.13;;;9.10;99.90;;;;;;5030426;28;20051;-74
2022/09/17 06:33:39;;;;;;;33.65;9.43;;;9.10;99.90;;;;;;5034360;28;20579;-72
2022/09/17 06:36:09;;;;;;;41.65;10.25;;;8.90;99.90;;;;;;5016045;28;20434;-73
2022/09/17 06:38:40;;;;;;;37.25;11.18;;;8.90;99.90;;;;;;5020415;28;20079;-75
2022/09/17 06:41:07;;;;;;;31.30;9.85;;;8.90;99.90;;;;;;5034743;28;20080;-74
2022/09/17 06:43:33;;;;;;;27.85;8.05;;;9.00;99.90;;;;;;5037632;28;20530;-73
2022/09/17 06:46:04;;;;;;;24.90;7.95;;;8.90;99.90;;;;;;5038318;28;20392;-73
2022/09/17 06:48:33;;;;;;;25.50;8.88;;;8.90;99.90;;;;;;5035114;28;20132;-74
2022/09/17 06:51:06;;;;;;;26.98;8.05;;;9.00;99.90;;;;;;5017144;28;20634;-72
2022/09/17 06:53:35;;;;;;;25.80;8.02;;;9.00;99.90;;;;;;5033068;28;20037;-73
2022/09/17 06:56:03;;;;;;;23.25;7.68;;;9.00;99.90;;;;;;5035552;28;20414;-73
2022/09/17 06:58:35;;;;;;;27.92;8.43;;;9.00;99.90;;;;;;5035621;28;20037;-74
2022/09/17 07:01:04;;;;;;;27.50;8.50;;;9.00;99.90;;;;;;5014103;28;20059;-75
2022/09/17 07:03:32;;;;;;;25.90;7.43;;;9.00;99.90;;;;;;5047661;28;20072;-75
2022/09/17 07:05:58;;;;;;;31.08;8.77;;;9.10;99.90;;;;;;5044232;28;20045;-73
2022/09/17 07:08:25;;;;;;;21.23;8.18;;;9.10;99.90;;;;;;5036051;28;20048;-74
2022/09/17 07:10:56;;;;;;;25.08;8.80;;;9.00;99.90;;;;;;5016547;28;20041;-74
2022/09/17 07:13:24;;;;;;;22.75;7.70;;;9.10;99.90;;;;;;5021056;28;20347;-74
2022/09/17 07:15:52;;;;;;;27.67;9.57;;;9.10;99.90;;;;;;5039070;28;20052;-73
2022/09/17 07:18:19;;;;;;;25.40;7.50;;;9.20;99.90;;;;;;5032299;28;20047;-74
2022/09/17 07:20:58;;;;;;;27.02;6.88;;;9.20;99.90;;;;;;5031015;28;20037;-74
2022/09/17 07:23:30;;;;;;;26.70;7.57;;;9.30;99.90;;;;;;5015807;28;20045;-73
2022/09/17 07:26:00;;;;;;;20.40;6.78;;;9.30;99.90;;;;;;5036646;28;20617;-74
2022/09/17 07:28:27;;;;;;;23.13;7.45;;;9.50;99.90;;;;;;5018503;28;20040;-74
2022/09/17 07:30:55;;;;;;;24.23;6.18;;;9.50;99.90;;;;;;5032310;28;20048;-73
2022/09/17 07:33:26;;;;;;;16.65;6.53;;;9.50;99.90;;;;;;5037141;28;20044;-73
2022/09/17 07:36:01;;;;;;;20.30;6.43;;;9.50;99.90;;;;;;5032960;28;20037;-74
2022/09/17 07:38:29;;;;;;;17.60;6.05;;;9.50;99.90;;;;;;5034312;28;20043;-73
2022/09/17 07:41:02;;;;;;;17.40;6.07;;;9.50;99.90;;;;;;5001674;22;20042;-70
2022/09/17 07:43:32;;;;;;;14.18;6.63;;;9.70;99.90;;;;;;4986532;28;20489;-70
2022/09/17 07:46:01;;;;;;;22.63;8.07;;;9.80;99.90;;;;;;4991129;28;20030;-70
2022/09/17 07:48:29;;;;;;;23.25;6.15;;;10.00;99.90;;;;;;4989576;28;20497;-70
2022/09/17 07:50:56;;;;;;;22.90;7.43;;;9.90;99.90;;;;;;4987956;28;20038;-69
2022/09/17 07:53:22;;;;;;;24.85;6.72;;;9.90;99.90;;;;;;4965097;28;20060;-70
2022/09/17 07:55:57;;;;;;;14.18;5.88;;;10.00;99.90;;;;;;4965261;28;20500;-70
2022/09/17 07:58:31;;;;;;;18.25;5.25;;;10.00;99.90;;;;;;4986496;28;20068;-70
2022/09/17 08:01:07;;;;;;;16.80;6.72;;;10.10;99.90;;;;;;4988808;28;20419;-70
2022/09/17 08:03:34;;;;;;;18.13;7.15;;;10.10;99.90;;;;;;4963018;28;20535;-70
2022/09/17 08:06:13;;;;;;;22.48;7.30;;;10.10;99.90;;;;;;4994893;28;20616;-69
2022/09/17 08:08:41;;;;;;;21.25;7.90;;;10.20;99.90;;;;;;4990483;28;20049;-69
2022/09/17 08:11:13;;;;;;;24.88;8.55;;;10.30;99.90;;;;;;4994869;28;20049;-69
2022/09/17 08:13:52;;;;;;;19.00;8.00;;;10.20;99.90;;;;;;4993341;28;20038;-71
2022/09/17 08:16:20;;;;;;;15.70;9.00;;;10.20;99.90;;;;;;4995156;28;20042;-70
2022/09/17 08:18:47;;;;;;;29.48;9.60;;;10.20;99.90;;;;;;4990682;28;20038;-69
2022/09/17 08:21:17;;;;;;;19.13;11.15;;;10.20;99.90;;;;;;4970568;28;20340;-70
2022/09/17 08:23:44;;;;;;;20.20;9.52;;;10.20;99.90;;;;;;4988762;28;21029;-69
2022/09/17 08:26:20;;;;;;;20.98;10.50;;;10.30;99.90;;;;;;4989228;28;20452;-70
2022/09/17 08:28:49;;;;;;;20.73;9.63;;;10.50;99.90;;;;;;4989490;28;20042;-70
2022/09/17 08:31:18;;;;;;;22.50;10.95;;;10.70;99.90;;;;;;4987739;28;20393;-70
2022/09/17 08:33:45;;;;;;;18.20;11.13;;;10.90;99.90;;;;;;4969199;28;21693;-69
2022/09/17 08:36:15;;;;;;;15.63;11.90;;;10.90;99.90;;;;;;4991816;28;20133;-70
2022/09/17 08:38:42;;;;;;;22.65;13.85;;;10.80;99.90;;;;;;4988154;28;20500;-70
2022/09/17 08:41:09;;;;;;;14.90;11.57;;;10.90;99.90;;;;;;4966091;28;20042;-70
2022/09/17 08:44:06;;;;;;;14.48;12.95;;;10.90;99.90;;;;;;4988331;28;20206;-70
2022/09/17 08:46:49;;;;;;;26.73;14.13;;;11.00;99.90;;;;;;4993206;28;20042;-70
2022/09/17 08:49:35;;;;;;;19.88;13.52;;;11.10;99.90;;;;;;4973816;28;20676;-70
2022/09/17 08:52:40;;;;;;;16.15;14.50;;;11.30;99.90;;;;;;4991180;28;20038;-70
2022/09/17 08:55:41;;;;;;;21.45;15.63;;;11.50;99.90;;;;;;4990323;28;20401;-70
2022/09/17 08:58:16;;;;;;;21.98;16.33;;;11.50;99.90;;;;;;4972535;28;20378;-70
2022/09/17 09:00:52;;;;;;;23.00;16.20;;;11.30;99.90;;;;;;4962286;28;20112;-71
2022/09/17 09:03:59;;;;;;;28.17;16.50;;;11.40;99.90;;;;;;4956420;28;20050;-70
2022/09/17 09:06:36;;;;;;;26.40;18.88;;;11.80;99.90;;;;;;4965031;28;20041;-70
2022/09/17 09:09:12;;;;;;;20.63;17.50;;;11.70;99.90;;;;;;4985462;28;20272;-70
2022/09/17 09:11:41;;;;;;;18.92;17.00;;;11.50;99.90;;;;;;4990586;28;20504;-70
2022/09/17 09:14:26;;;;;;;19.52;17.58;;;11.70;99.90;;;;;;4968432;28;20038;-70
2022/09/17 09:16:55;;;;;;;22.33;17.98;;;11.90;99.90;;;;;;4962584;28;20038;-70
2022/09/17 09:19:29;;;;;;;20.00;18.00;;;11.90;99.90;;;;;;4990199;28;20046;-70
2022/09/17 09:22:31;;;;;;;21.98;19.63;;;12.00;99.90;;;;;;4992423;28;20042;-70
2022/09/17 09:25:19;;;;;;;25.38;19.77;;;12.30;99.90;;;;;;4988127;28;20054;-70
2022/09/17 09:28:05;;;;;;;25.05;19.95;;;12.60;99.90;;;;;;4964137;28;20046;-70
2022/09/17 09:31:27;;;;;;;20.77;18.45;;;12.50;99.90;;;;;;4986349;28;20308;-70
2022/09/17 09:33:55;;;;;;;21.67;19.48;;;12.30;99.90;;;;;;4943234;28;20141;-70
2022/09/17 09:36:22;;;;;;;21.77;19.67;;;12.20;99.90;;;;;;4987596;28;20041;-70
2022/09/17 09:38:56;;;;;;;22.63;20.33;;;12.50;99.90;;;;;;4990401;28;20038;-70
2022/09/17 09:41:35;;;;;;;21.25;19.50;;;12.60;99.90;;;;;;4991010;28;20354;-70
2022/09/17 09:44:10;;;;;;;21.48;19.30;;;12.60;99.90;;;;;;4988447;28;20448;-70
2022/09/17 09:47:19;;;;;;;24.90;19.02;;;12.90;99.90;;;;;;4984402;28;20112;-70
2022/09/17 09:50:10;;;;;;;20.85;19.00;;;12.80;99.90;;;;;;4987017;28;20042;-70
2022/09/17 09:52:41;;;;;;;21.23;19.40;;;12.40;99.90;;;;;;4991483;28;20042;-70
2022/09/17 09:55:42;;;;;;;21.58;19.55;;;12.10;99.90;;;;;;4970247;28;20047;-70
2022/09/17 09:58:15;;;;;;;21.58;19.42;;;11.90;99.90;;;;;;4995507;28;20053;-70
2022/09/17 10:00:42;;;;;;;21.90;19.85;;;12.00;99.90;;;;;;4968020;28;20068;-70
2022/09/17 10:03:31;;;;;;;22.50;20.20;;;12.10;99.90;;;;;;4985807;28;20042;-69
2022/09/17 10:05:59;;;;;;;20.55;18.73;;;12.20;99.90;;;;;;4987589;28;20046;-70
2022/09/17 10:08:28;;;;;;;20.80;18.98;;;12.10;99.90;;;;;;4983253;28;20044;-70
2022/09/17 10:10:56;;;;;;;19.98;18.55;;;11.90;99.90;;;;;;4968996;28;20034;-70
2022/09/17 10:13:24;;;;;;;21.05;19.23;;;11.90;99.90;;;;;;4992438;28;20284;-70
2022/09/17 10:15:51;;;;;;;20.45;18.77;;;11.90;99.90;;;;;;4959654;28;20579;-70
2022/09/17 10:18:20;;;;;;;22.05;20.15;;;11.90;99.90;;;;;;4986249;28;20112;-70
2022/09/17 10:21:18;;;;;;;21.00;19.33;;;12.20;99.90;;;;;;4983732;28;20057;-69
2022/09/17 10:23:45;;;;;;;21.60;19.77;;;12.20;99.90;;;;;;4985146;28;20509;-70
2022/09/17 10:26:27;;;;;;;20.77;19.17;;;12.10;99.90;;;;;;4964400;28;20050;-70
2022/09/17 10:28:58;;;;;;;21.58;18.80;;;12.10;99.90;;;;;;4987893;28;20046;-70
2022/09/17 10:31:25;;;;;;;21.85;19.67;;;12.10;99.90;;;;;;4962926;28;20209;-70
2022/09/17 10:34:02;;;;;;;20.63;19.02;;;11.90;99.90;;;;;;4993037;28;20054;-70
2022/09/17 10:36:42;;;;;;;20.42;18.85;;;12.10;99.90;;;;;;4966889;28;20046;-70
2022/09/17 10:39:19;;;;;;;21.17;19.50;;;12.60;99.90;;;;;;4985574;28;20050;-70
2022/09/17 10:41:54;;;;;;;22.35;20.13;;;13.10;99.90;;;;;;4990611;28;20340;-70
2022/09/17 10:44:23;;;;;;;23.80;21.50;;;13.60;99.90;;;;;;4963197;28;20053;-70
2022/09/17 10:46:51;;;;;;;20.55;18.90;;;13.80;99.90;;;;;;4964144;28;20046;-70
2022/09/17 10:49:42;;;;;;;22.02;20.05;;;13.70;99.90;;;;;;4991673;28;20060;-70
2022/09/17 10:52:24;;;;;;;22.27;20.27;;;13.30;99.90;;;;;;4948502;28;20041;-70
2022/09/17 10:55:36;;;;;;;21.67;20.13;;;13.10;99.90;;;;;;4990374;28;20444;-69
2022/09/17 10:58:08;;;;;;;21.63;20.02;;;12.80;99.90;;;;;;4976310;28;20044;-69
2022/09/17 11:00:53;;;;;;;23.02;20.50;;;12.70;99.90;;;;;;4969864;28;20043;-70
2022/09/17 11:03:40;;;;;;;22.57;20.77;;;12.50;99.90;;;;;;4989061;28;20483;-70
2022/09/17 11:06:16;;;;;;;22.73;20.83;;;12.90;99.90;;;;;;4960514;28;20043;-69
2022/09/17 11:08:55;;;;;;;23.05;21.25;;;13.10;99.90;;;;;;4985985;28;20046;-70
2022/09/17 11:11:31;;;;;;;22.05;20.15;;;13.10;99.90;;;;;;4968869;28;20038;-70
2022/09/17 11:14:09;;;;;;;22.70;20.85;;;13.40;99.90;;;;;;4988572;28;20489;-70
2022/09/17 11:16:57;;;;;;;22.27;20.27;;;13.30;99.90;;;;;;4971487;28;20042;-70
2022/09/17 11:19:54;;;;;;;22.55;20.23;;;13.30;99.90;;;;;;4967442;28;20487;-71
2022/09/17 11:22:26;;;;;;;21.83;20.08;;;13.40;99.90;;;;;;4994490;28;20561;-71
2022/09/17 11:25:17;;;;;;;23.70;21.55;;;13.60;99.90;;;;;;4996139;28;20129;-70
2022/09/17 11:27:54;;;;;;;22.27;20.13;;;13.80;99.90;;;;;;4986463;28;20043;-69
2022/09/17 11:30:22;;;;;;;21.60;19.88;;;13.80;99.90;;;;;;4992950;28;20046;-70
2022/09/17 11:33:04;;;;;;;22.48;20.73;;;13.50;99.90;;;;;;4999004;28;20137;-69
2022/09/17 11:35:46;;;;;;;24.40;22.35;;;13.60;99.90;;;;;;4991905;28;20045;-69
2022/09/17 11:38:22;;;;;;;21.65;19.80;;;14.10;99.90;;;;;;4984785;28;20431;-69
2022/09/17 11:40:59;;;;;;;21.25;19.65;;;14.40;99.90;;;;;;4969416;28;20053;-71
2022/09/17 11:43:30;;;;;;;20.52;18.85;;;14.20;99.90;;;;;;4966739;28;20073;-71
2022/09/17 11:46:02;;;;;;;19.65;18.25;;;13.90;99.90;;;;;;4967842;28;20971;-71
2022/09/17 11:48:37;;;;;;;15.52;14.63;;;12.90;99.90;;;;;;4962948;28;20058;-71
2022/09/17 11:51:21;;;;;;;14.95;13.60;;;11.00;99.90;;;;;;4983549;28;20080;-70
2022/09/17 11:54:19;;;;;;;12.02;11.32;;;10.10;99.90;;;;;;4989163;28;20515;-71
2022/09/17 11:56:53;;;;;;;9.90;9.50;;;9.90;99.90;;;;;;4989128;28;20038;-71
2022/09/17 11:59:48;;;;;;;8.45;7.70;;;10.00;99.90;;;;;;4989005;28;20038;-72
2022/09/17 12:02:43;;;;;;;8.27;7.47;;;10.30;99.90;;;;;;4988355;28;20367;-71
2022/09/17 12:05:15;;;;;;;7.50;5.13;;;10.70;99.90;;;;;;4975661;28;20057;-72
2022/09/17 12:07:54;;;;;;;9.48;4.70;;;11.20;99.90;;;;;;4972721;28;20061;-73
2022/09/17 12:10:40;;;;;;;5.93;4.20;;;11.60;99.90;;;;;;4986677;28;20082;-72
2022/09/17 12:13:22;;;;;;;7.60;5.68;;;12.00;99.90;;;;;;4994711;28;20061;-72
2022/09/17 12:15:54;;;;;;;7.97;7.20;;;12.50;99.90;;;;;;4991164;28;20356;-72
2022/09/17 12:18:23;;;;;;;11.15;9.98;;;12.80;99.90;;;;;;4987676;28;20042;-72
2022/09/17 12:21:02;;;;;;;12.02;11.07;;;12.80;99.90;;;;;;4987957;28;20120;-70
2022/09/17 12:23:47;;;;;;;11.00;10.15;;;13.10;99.90;;;;;;4992035;28;20045;-72
2022/09/17 12:26:31;;;;;;;15.85;14.20;;;13.40;99.90;;;;;;4965523;28;20058;-72
2022/09/17 12:29:28;;;;;;;14.95;13.60;;;13.80;99.90;;;;;;4986602;28;20519;-72
2022/09/17 12:32:01;;;;;;;16.88;15.88;;;14.20;99.90;;;;;;4987001;28;20042;-71
2022/09/17 12:35:01;;;;;;;18.05;16.83;;;14.50;99.90;;;;;;4987824;28;20061;-71
2022/09/17 12:38:09;;;;;;;19.13;17.85;;;14.10;99.90;;;;;;4982366;28;20038;-71
2022/09/17 12:41:04;;;;;;;17.33;16.33;;;13.80;99.90;;;;;;4913068;29;20399;-71
2022/09/17 12:43:33;;;;;;;19.08;17.67;;;13.60;99.90;;;;;;4884191;29;20589;-71
2022/09/17 12:46:11;;;;;;;21.40;19.63;;;13.20;99.90;;;;;;4966541;28;20041;-71
2022/09/17 12:49:18;;;;;;;22.58;20.95;;;13.00;99.90;;;;;;4990135;28;20586;-71
2022/09/17 12:52:00;;;;;;;21.10;19.50;;;12.90;99.90;;;;;;4959202;28;20038;-71
2022/09/17 12:54:52;;;;;;;20.73;19.35;;;13.30;99.90;;;;;;4991652;28;20464;-71
2022/09/17 12:58:09;;;;;;;20.48;19.20;;;13.80;99.90;;;;;;4992902;28;20061;-70
2022/09/17 13:00:44;;;;;;;20.27;19.08;;;14.20;99.90;;;;;;4964451;28;20061;-70
2022/09/17 13:03:23;;;;;;;20.63;19.33;;;14.20;99.90;;;;;;4987712;28;20271;-71
2022/09/17 13:06:08;;;;;;;21.52;20.00;;;13.70;99.90;;;;;;4985583;28;20037;-71
2022/09/17 13:08:54;;;;;;;21.58;19.98;;;13.30;99.90;;;;;;4989874;28;20042;-71
2022/09/17 13:11:27;;;;;;;;;;;13.40;99.90;;;;;;4987146;28;20536;-71
2022/09/17 13:14:09;;;;;;;21.20;18.20;;;13.40;99.90;;;;;;4988433;28;19922;-71